Time;durP1;ratioP1;P1;durP2;ratioP2;P2;SDS_P1;SDS_P2;PMS_P1;PMS_P2;Temp;Humidity;BMP_temperature;BMP_pressure;BME280_temperature;BME280_humidity;BME280_pressure;Samples;Min_cycle;Max_cycle;Signal;HPM_P1;HPM_P2
2022/06/03 00:00:05;;;;;;;3.50;2.80;;;;;;;10.93;67.11;99048.20;106598;1277;22601;-84
2022/06/03 00:03:02;;;;;;;3.50;2.90;;;;;;;10.82;67.23;99047.77;106855;1276;136833;-84
2022/06/03 00:05:31;;;;;;;3.60;3.10;;;;;;;10.81;67.48;99045.06;106497;1277;22554;-84
2022/06/03 00:08:36;;;;;;;2.90;2.50;;;;;;;10.82;67.52;99049.52;106354;1276;137084;-84
2022/06/03 00:11:06;;;;;;;3.60;2.30;;;;;;;10.82;67.92;99053.21;106745;1276;22572;-85
2022/06/03 00:14:10;;;;;;;4.00;2.40;;;;;;;10.82;67.89;99053.00;106616;1276;137762;-84
2022/06/03 00:17:05;;;;;;;2.90;2.50;;;;;;;10.85;68.16;99055.19;106507;1276;25263;-85
2022/06/03 00:20:04;;;;;;;3.00;2.60;;;;;;;10.82;67.81;99055.11;106384;1277;137245;-85
2022/06/03 00:23:13;;;;;;;3.90;2.90;;;;;;;10.73;67.90;99048.82;105856;1283;22568;-85
2022/06/03 00:25:51;;;;;;;3.80;2.70;;;;;;;10.64;67.99;99048.98;105961;1284;137605;-84
2022/06/03 00:28:42;;;;;;;3.60;2.90;;;;;;;10.63;68.37;99049.71;105886;1285;22556;-85
2022/06/03 00:31:42;;;;;;;6.00;2.80;;;;;;;10.60;68.22;99045.92;105535;1285;137059;-84
2022/06/03 00:35:14;;;;;;;2.40;2.20;;;;;;;10.59;68.27;99041.64;105742;1284;22604;-84
2022/06/03 00:37:49;;;;;;;5.90;2.70;;;;;;;10.60;68.47;99038.52;105812;1286;137806;-84
2022/06/03 00:40:49;;;;;;;3.10;2.60;;;;;;;10.62;68.54;99034.81;105878;1286;22610;-84
2022/06/03 00:44:08;;;;;;;3.20;2.40;;;;;;;10.64;68.44;99033.27;105581;1286;137043;-84
2022/06/03 00:46:38;;;;;;;2.70;2.40;;;;;;;10.64;68.17;99030.17;105668;1286;25382;-87
2022/06/03 00:49:26;;;;;;;3.30;2.40;;;;;;;10.64;68.22;99031.16;105631;1285;30240;-84
2022/06/03 00:51:59;;;;;;;3.30;2.90;;;;;;;10.64;68.13;99028.16;105878;1285;22710;-84
2022/06/03 00:54:43;;;;;;;3.30;2.50;;;;;;;10.59;68.53;99022.54;105657;1285;22563;-84
2022/06/03 00:57:45;;;;;;;3.00;2.60;;;;;;;10.56;68.66;99019.98;105503;1285;137113;-84
2022/06/03 01:00:40;;;;;;;4.80;2.70;;;;;;;10.55;68.66;99017.94;106506;1279;25529;-84
2022/06/03 01:03:11;;;;;;;4.00;3.00;;;;;;;10.54;68.53;99015.36;106442;1279;137691;-84
2022/06/03 01:05:44;;;;;;;3.40;2.80;;;;;;;10.54;68.52;99015.57;106630;1278;23290;-84
2022/06/03 01:08:18;;;;;;;3.10;2.40;;;;;;;10.53;68.51;99019.86;106322;1278;137807;-85
2022/06/03 01:11:11;;;;;;;3.40;2.70;;;;;;;10.52;68.67;99022.23;106734;1278;25366;-85
2022/06/03 01:14:05;;;;;;;3.40;2.90;;;;;;;10.49;68.53;99024.00;106185;1279;137202;-84
2022/06/03 01:17:04;;;;;;;5.40;2.60;;;;;;;10.47;68.66;99024.96;106250;1279;24228;-86
2022/06/03 01:19:49;;;;;;;4.30;2.50;;;;;;;10.44;68.60;99030.41;106289;1277;137183;-86
2022/06/03 01:23:12;;;;;;;3.60;2.20;;;;;;;10.41;68.70;99031.79;106336;1277;22592;-86
2022/06/03 01:26:24;;;;;;;5.80;2.60;;;;;;;10.42;68.69;99036.66;106390;1277;137555;-86
2022/06/03 01:28:57;;;;;;;2.50;2.30;;;;;;;10.42;68.70;99037.05;106595;1277;22538;-85
2022/06/03 01:32:10;;;;;;;3.10;2.40;;;;;;;10.41;68.75;99036.48;106330;1279;137235;-86
2022/06/03 01:34:51;;;;;;;3.00;2.30;;;;;;;10.33;68.96;99031.49;106343;1280;22540;-85
2022/06/03 01:37:45;;;;;;;3.30;2.30;;;;;;;10.34;68.86;99039.75;106058;1280;137211;-85
2022/06/03 01:40:51;;;;;;;2.70;2.40;;;;;;;10.32;68.84;99044.80;106249;1280;30186;-84
2022/06/03 01:43:22;;;;;;;5.00;2.50;;;;;;;10.28;69.18;99049.67;106309;1278;22534;-84
2022/06/03 01:45:59;;;;;;;4.40;2.50;;;;;;;10.21;69.09;99049.92;106355;1280;25264;-85
2022/06/03 01:48:56;;;;;;;3.20;2.30;;;;;;;10.20;69.40;99049.57;106029;1280;24318;-85
2022/06/03 01:51:37;;;;;;;3.80;2.40;;;;;;;10.21;69.17;99050.77;105908;1279;137177;-85
2022/06/03 01:54:36;;;;;;;3.30;2.50;;;;;;;10.22;69.29;99047.45;106565;1277;24301;-85
2022/06/03 01:57:33;;;;;;;3.00;2.60;;;;;;;10.23;69.53;99046.98;106307;1279;137358;-85
2022/06/03 02:00:11;;;;;;;4.40;3.00;;;;;;;10.22;69.68;99046.91;106205;1279;25249;-84
2022/06/03 02:03:18;;;;;;;3.60;2.80;;;;;;;10.22;69.54;99049.08;106267;1277;137256;-85
2022/06/03 02:05:47;;;;;;;5.60;2.50;;;;;;;10.23;69.94;99052.71;106603;1277;22563;-84
2022/06/03 02:08:50;;;;;;;5.10;2.60;;;;;;;10.27;69.88;99056.61;106269;1277;137867;-84
2022/06/03 02:11:34;;;;;;;3.10;2.50;;;;;;;10.30;70.07;99055.73;106457;1277;30875;-84
2022/06/03 02:14:39;;;;;;;6.90;3.20;;;;;;;10.32;70.02;99054.82;106464;1277;137036;-84
2022/06/03 02:17:57;;;;;;;3.40;3.10;;;;;;;10.32;70.02;99051.00;106753;1277;22652;-84
2022/06/03 02:20:58;;;;;;;3.20;2.70;;;;;;;10.30;69.83;99059.88;106674;1277;136957;-84
2022/06/03 02:24:08;;;;;;;4.70;2.60;;;;;;;10.29;69.79;99059.18;106355;1280;22573;-84
2022/06/03 02:27:21;;;;;;;2.40;2.20;;;;;;;10.28;69.83;99058.23;106266;1277;137148;-84
2022/06/03 02:30:24;;;;;;;2.50;2.30;;;;;;;10.29;70.04;99063.52;106308;1278;22620;-85
2022/06/03 02:33:24;;;;;;;2.30;2.10;;;;;;;10.32;70.37;99065.45;106451;1279;137828;-84
2022/06/03 02:36:11;;;;;;;5.90;2.50;;;;;;;10.34;70.08;99071.55;106301;1276;22581;-84
2022/06/03 02:39:16;;;;;;;5.20;2.90;;;;;;;10.31;69.58;99066.54;106368;1276;136948;-84
2022/06/03 02:42:16;;;;;;;3.00;2.70;;;;;;;10.29;69.88;99066.00;106942;1276;22538;-85
2022/06/03 02:45:26;;;;;;;2.90;2.50;;;;;;;10.31;70.13;99070.55;106069;1277;137015;-84
2022/06/03 02:48:25;;;;;;;4.00;2.30;;;;;;;10.32;70.30;99071.86;106379;1277;25480;-85
2022/06/03 02:51:18;;;;;;;2.20;2.00;;;;;;;10.37;70.55;99072.40;106338;1276;137898;-85
2022/06/03 02:54:21;;;;;;;3.40;2.10;;;;;;;10.43;71.23;99067.46;106304;1277;24239;-85
2022/06/03 02:57:07;;;;;;;;;;;;;;;10.49;71.27;99069.42;106659;1276;137720;-85
2022/06/03 03:00:02;;;;;;;4.80;2.70;;;;;;;10.55;70.83;99068.81;106339;1276;24294;-84
2022/06/03 03:02:44;;;;;;;2.60;2.40;;;;;;;10.46;69.93;99070.35;106678;1277;138041;-85
2022/06/03 03:05:19;;;;;;;4.00;3.20;;;;;;;10.17;69.85;99074.67;106345;1277;24426;-84
2022/06/03 03:08:51;;;;;;;4.30;2.70;;;;;;;9.98;70.77;99082.39;106376;1275;137477;-84
2022/06/03 03:11:49;;;;;;;3.50;2.40;;;;;;;9.91;71.53;99088.70;106179;1276;25308;-84
2022/06/03 03:14:37;;;;;;;5.60;2.70;;;;;;;9.91;71.85;99089.95;106247;1276;137539;-84
2022/06/03 03:17:42;;;;;;;4.90;2.40;;;;;;;9.93;72.06;99086.05;106228;1277;24257;-84
2022/06/03 03:20:15;;;;;;;9.90;2.60;;;;;;;10.00;72.38;99087.89;106201;1278;137960;-84
2022/06/03 03:23:07;;;;;;;4.20;2.90;;;;;;;10.08;72.39;99088.93;106704;1277;25312;-83
2022/06/03 03:25:58;;;;;;;4.20;2.60;;;;;;;10.19;72.54;99091.41;106472;1277;137410;-84
2022/06/03 03:28:54;;;;;;;4.60;2.40;;;;;;;10.30;72.35;99089.71;106501;1277;26581;-85
2022/06/03 03:31:27;;;;;;;3.40;2.40;;;;;;;10.40;71.67;99091.88;106161;1278;137392;-84
2022/06/03 03:34:31;;;;;;;4.10;2.60;;;;;;;10.48;71.51;99091.00;106859;1277;22532;-84
2022/06/03 03:37:16;;;;;;;3.90;2.50;;;;;;;10.52;71.35;99085.02;106466;1276;22575;-84
2022/06/03 03:39:47;;;;;;;3.80;2.70;;;;;;;10.55;71.03;99084.23;106292;1276;137827;-84
2022/06/03 03:42:29;;;;;;;5.10;2.60;;;;;;;10.57;70.97;99085.61;106550;1276;22543;-84
2022/06/03 03:45:17;;;;;;;6.50;2.80;;;;;;;10.62;71.29;99086.77;106461;1277;137177;-84
2022/06/03 03:48:28;;;;;;;5.40;2.90;;;;;;;10.66;71.73;99091.20;106339;1277;24216;-84
2022/06/03 03:51:16;;;;;;;5.70;2.90;;;;;;;10.72;71.63;99086.05;106782;1277;137307;-84
2022/06/03 03:54:02;;;;;;;4.50;2.90;;;;;;;10.74;71.73;99087.48;106372;1276;30527;-84
2022/06/03 03:56:54;;;;;;;5.80;2.40;;;;;;;10.79;71.19;99083.98;106399;1276;137204;-84
2022/06/03 03:59:59;;;;;;;7.10;3.50;;;;;;;10.86;71.26;99089.33;106901;1276;23908;-84
2022/06/03 04:03:07;;;;;;;3.70;2.60;;;;;;;10.95;71.33;99090.72;106459;1276;137492;-84
2022/06/03 04:06:11;;;;;;;3.10;2.10;;;;;;;11.02;71.40;99087.80;106239;1277;22528;-84
2022/06/03 04:09:29;;;;;;;3.70;2.30;;;;;;;11.11;70.95;99093.20;106313;1277;137165;-84
2022/06/03 04:12:29;;;;;;;4.00;2.00;;;;;;;11.21;71.04;99093.14;106728;1276;22532;-84
2022/06/03 04:15:06;;;;;;;5.50;2.60;;;;;;;11.30;70.54;99095.55;106573;1276;137298;-84
2022/06/03 04:17:58;;;;;;;3.00;2.30;;;;;;;11.39;70.36;99101.16;106482;1276;22638;-84
2022/06/03 04:20:54;;;;;;;3.10;2.10;;;;;;;11.47;70.79;99097.44;106339;1276;137353;-84
2022/06/03 04:23:43;;;;;;;2.90;1.90;;;;;;;11.55;70.34;99098.63;106477;1277;22560;-84
2022/06/03 04:26:42;;;;;;;;;;;;;;;11.66;70.46;99097.95;106681;1277;137503;-84
2022/06/03 04:29:34;;;;;;;5.00;2.20;;;;;;;11.75;70.09;99102.31;106400;1277;22584;-85
2022/06/03 04:32:36;;;;;;;3.20;2.30;;;;;;;11.87;70.11;99105.55;106249;1277;137223;-84
2022/06/03 04:35:37;;;;;;;3.50;2.50;;;;;;;11.99;70.29;99109.55;107039;1276;25370;-84
2022/06/03 04:38:43;;;;;;;5.10;3.00;;;;;;;12.05;70.22;99111.16;106219;1276;137433;-84
2022/06/03 04:41:42;;;;;;;3.30;2.80;;;;;;;12.11;70.14;99114.13;106544;1276;22703;-84
2022/06/03 04:44:31;;;;;;;3.40;2.90;;;;;;;12.15;69.94;99113.84;106156;1277;137384;-84
2022/06/03 04:47:51;;;;;;;3.90;3.10;;;;;;;12.20;69.90;99113.45;106849;1277;23392;-84
2022/06/03 04:50:37;;;;;;;3.80;2.60;;;;;;;12.25;69.61;99115.14;106305;1277;137954;-84
2022/06/03 04:54:01;;;;;;;10.30;3.80;;;;;;;12.30;69.88;99116.69;106519;1277;24004;-84
2022/06/03 04:56:37;;;;;;;7.80;3.40;;;;;;;12.35;70.17;99112.80;106455;1276;137792;-84
2022/06/03 04:59:29;;;;;;;8.70;3.50;;;;;;;12.38;70.22;99104.83;106395;1276;22660;-84
2022/06/03 05:02:34;;;;;;;4.80;3.30;;;;;;;12.42;69.91;99103.62;106290;1277;137114;-83
2022/06/03 05:05:18;;;;;;;5.90;3.10;;;;;;;12.48;69.98;99106.15;106236;1281;30435;-84
2022/06/03 05:08:01;;;;;;;10.60;3.60;;;;;;;12.56;69.98;99110.62;106484;1277;137434;-84
2022/06/03 05:10:47;;;;;;;4.30;3.40;;;;;;;12.63;69.97;99114.04;106406;1277;23960;-84
2022/06/03 05:14:00;;;;;;;3.50;2.80;;;;;;;12.73;69.50;99112.65;107231;1277;22557;-84
2022/06/03 05:17:18;;;;;;;7.70;3.50;;;;;;;12.87;69.89;99115.28;106648;1277;22620;-84
2022/06/03 05:20:05;;;;;;;4.70;2.50;;;;;;;13.02;69.02;99121.02;106486;1277;137765;-84
2022/06/03 05:23:10;;;;;;;3.50;2.40;;;;;;;13.16;68.20;99128.61;106271;1278;22559;-84
2022/06/03 05:26:05;;;;;;;4.00;2.80;;;;;;;13.28;67.64;99124.69;106343;1278;137480;-84
2022/06/03 05:29:04;;;;;;;3.10;2.60;;;;;;;13.40;66.73;99127.81;106410;1277;22599;-84
2022/06/03 05:31:51;;;;;;;3.20;2.50;;;;;;;13.52;66.61;99131.25;106182;1278;137708;-83
2022/06/03 05:34:55;;;;;;;5.50;3.10;;;;;;;13.62;66.49;99133.98;106404;1278;22536;-85
2022/06/03 05:37:41;;;;;;;4.50;2.60;;;;;;;13.72;66.31;99136.06;106374;1277;137819;-84
2022/06/03 05:40:14;;;;;;;3.50;2.80;;;;;;;13.80;65.96;99131.44;106473;1277;24214;-84
2022/06/03 05:43:17;;;;;;;5.50;3.00;;;;;;;13.90;65.62;99132.13;106253;1277;23920;-84
2022/06/03 05:46:23;;;;;;;4.40;3.30;;;;;;;14.00;65.51;99132.02;106299;1281;22727;-84
2022/06/03 05:49:05;;;;;;;6.50;3.30;;;;;;;14.10;65.39;99130.45;106385;1281;24337;-84
2022/06/03 05:51:45;;;;;;;5.30;3.20;;;;;;;14.18;64.82;99130.30;106703;1280;137994;-85
2022/06/03 05:54:21;;;;;;;5.20;3.00;;;;;;;14.27;64.53;99131.56;106426;1278;25518;-84
2022/06/03 05:57:26;;;;;;;5.10;3.50;;;;;;;14.36;64.09;99129.34;106270;1277;137279;-84
2022/06/03 06:00:34;;;;;;;4.50;3.30;;;;;;;14.46;63.87;99133.05;106612;1278;22573;-84
2022/06/03 06:03:39;;;;;;;4.10;3.20;;;;;;;14.58;63.62;99128.34;106290;1278;137283;-84
2022/06/03 06:06:28;;;;;;;5.60;3.20;;;;;;;14.70;63.25;99132.92;106671;1277;22682;-84
2022/06/03 06:09:08;;;;;;;7.30;3.80;;;;;;;14.81;62.94;99126.10;106131;1280;137215;-84
2022/06/03 06:12:26;;;;;;;4.30;3.90;;;;;;;14.93;62.71;99127.02;106331;1280;22683;-84
2022/06/03 06:15:12;;;;;;;6.30;3.90;;;;;;;15.04;62.41;99123.29;106190;1278;137204;-84
2022/06/03 06:17:59;;;;;;;7.70;4.50;;;;;;;15.16;62.09;99121.39;106381;1281;26502;-84
2022/06/03 06:20:41;;;;;;;5.00;4.00;;;;;;;15.26;61.86;99121.98;106037;1281;137239;-83
2022/06/03 06:23:31;;;;;;;8.90;3.80;;;;;;;15.35;61.62;99116.58;106333;1281;22609;-84
2022/06/03 06:26:03;;;;;;;7.30;3.70;;;;;;;15.46;62.00;99117.55;106266;1279;137539;-84
2022/06/03 06:28:50;;;;;;;5.40;3.40;;;;;;;15.56;62.02;99117.91;106975;1278;24247;-82
2022/06/03 06:31:53;;;;;;;5.50;3.60;;;;;;;15.68;61.65;99118.30;106508;1278;22685;-82
2022/06/03 06:34:36;;;;;;;5.10;3.30;;;;;;;15.81;61.33;99112.75;106727;1278;22559;-83
2022/06/03 06:37:39;;;;;;;8.50;3.60;;;;;;;15.94;61.05;99110.21;106691;1279;30261;-83
2022/06/03 06:40:18;;;;;;;8.20;4.10;;;;;;;16.05;60.89;99115.84;106528;1278;22560;-83
2022/06/03 06:43:00;;;;;;;7.20;3.30;;;;;;;16.16;60.55;99114.66;106730;1281;24601;-82
2022/06/03 06:46:04;;;;;;;4.50;3.10;;;;;;;16.30;59.46;99118.02;106413;1278;138202;-83
2022/06/03 06:48:52;;;;;;;6.10;3.00;;;;;;;16.43;59.06;99120.52;106436;1278;22591;-83
2022/06/03 06:51:27;;;;;;;5.00;3.10;;;;;;;16.60;58.94;99114.54;106798;1277;137465;-83
2022/06/03 06:54:32;;;;;;;5.60;3.00;;;;;;;16.74;59.00;99114.64;106918;1278;22711;-83
2022/06/03 06:57:07;;;;;;;3.80;2.70;;;;;;;16.90;58.58;99110.67;106601;1278;138095;-83
2022/06/03 07:00:07;;;;;;;6.80;3.40;;;;;;;17.04;58.26;99111.58;106772;1279;22571;-83
2022/06/03 07:03:03;;;;;;;8.10;4.30;;;;;;;17.20;57.36;99105.28;106336;1277;137327;-82
2022/06/03 07:06:14;;;;;;;7.80;3.80;;;;;;;17.34;56.67;99109.77;106589;1277;22658;-83
2022/06/03 07:08:51;;;;;;;5.30;3.50;;;;;;;17.51;55.74;99101.84;106367;1284;137742;-83
2022/06/03 07:11:25;;;;;;;4.50;3.10;;;;;;;17.63;55.23;99101.48;106077;1284;22766;-83
2022/06/03 07:14:14;;;;;;;2.90;2.30;;;;;;;17.76;53.63;99098.66;105581;1284;137726;-83
2022/06/03 07:20:28;;;;;;;3.70;2.40;;;;;;;18.04;52.20;99086.03;105650;1284;137278;-84
2022/06/03 07:23:06;;;;;;;4.10;2.00;;;;;;;18.19;51.55;99085.71;106014;1284;25648;-83
2022/06/03 07:25:56;;;;;;;4.20;1.90;;;;;;;18.35;50.90;99084.85;105591;1284;137387;-83
2022/06/03 07:28:35;;;;;;;3.60;1.80;;;;;;;18.49;50.34;99087.39;105893;1284;22673;-84
2022/06/03 07:31:13;;;;;;;2.50;1.90;;;;;;;18.64;49.79;99086.17;105765;1284;25417;-84
2022/06/03 07:34:03;;;;;;;1.70;1.30;;;;;;;18.78;49.37;99088.91;105891;1284;137106;-83
2022/06/03 07:36:59;;;;;;;2.00;1.70;;;;;;;18.97;48.69;99082.48;106217;1284;25725;-83
2022/06/03 07:39:49;;;;;;;1.50;1.40;;;;;;;19.12;48.11;99080.30;106748;1277;138466;-85
2022/06/03 07:42:26;;;;;;;4.90;1.40;;;;;;;19.28;47.09;99084.27;106755;1277;22622;-84
2022/06/03 07:45:17;;;;;;;2.20;1.30;;;;;;;19.41;46.04;99086.63;106788;1277;137271;-84
2022/06/03 07:47:45;;;;;;;3.60;1.40;;;;;;;19.55;45.68;99084.47;106220;1278;22590;-83
2022/06/03 07:50:29;;;;;;;2.60;1.60;;;;;;;19.68;45.50;99084.85;106125;1277;137733;-82
2022/06/03 07:53:21;;;;;;;4.10;1.80;;;;;;;19.81;45.58;99083.11;106478;1277;25323;-83
2022/06/03 07:56:02;;;;;;;2.30;1.80;;;;;;;19.94;45.65;99081.44;106096;1277;137429;-83
2022/06/03 07:58:33;;;;;;;4.50;1.70;;;;;;;20.08;45.44;99079.14;106400;1277;23258;-83
2022/06/03 08:01:00;;;;;;;3.00;1.70;;;;;;;20.22;45.15;99074.17;106548;1277;22570;-84
2022/06/03 08:03:36;;;;;;;3.50;2.10;;;;;;;20.35;45.03;99075.19;105881;1278;137233;-84
2022/06/03 08:12:27;;;;;;;4.70;2.20;;;;;;;20.83;44.59;99064.50;106131;1281;22755;-83
2022/06/03 08:14:55;;;;;;;2.90;2.10;;;;;;;20.98;44.04;99060.67;106378;1277;137526;-83
2022/06/03 08:17:26;;;;;;;3.00;2.10;;;;;;;21.10;43.90;99061.83;106393;1277;25325;-83
2022/06/03 08:19:57;;;;;;;5.20;2.40;;;;;;;21.22;43.81;99058.54;106242;1278;137774;-82
2022/06/03 08:22:25;;;;;;;3.30;1.90;;;;;;;21.34;43.67;99053.04;106522;1278;25263;-82
2022/06/03 08:24:57;;;;;;;5.20;2.50;;;;;;;21.45;43.08;99052.42;106685;1277;24766;-83
2022/06/03 08:27:35;;;;;;;4.80;2.50;;;;;;;21.55;43.28;99051.14;106511;1277;137601;-82
2022/06/03 08:30:08;;;;;;;4.70;2.60;;;;;;;21.69;43.46;99049.84;106819;1277;23480;-82
2022/06/03 08:33:05;;;;;;;4.10;2.50;;;;;;;21.86;43.86;99053.13;106200;1277;137197;-82
2022/06/03 08:35:36;;;;;;;4.10;2.60;;;;;;;22.01;43.18;99055.23;106246;1277;24276;-81
2022/06/03 08:38:24;;;;;;;2.70;2.40;;;;;;;22.11;42.21;99056.20;106937;1277;137546;-84
2022/06/03 08:41:05;;;;;;;3.60;2.80;;;;;;;22.23;42.39;99054.23;106591;1279;22549;-83
2022/06/03 08:44:08;;;;;;;3.50;2.50;;;;;;;22.39;42.28;99052.59;106117;1278;137389;-83
2022/06/03 08:46:40;;;;;;;4.10;2.20;;;;;;;22.56;41.70;99047.11;106217;1281;23410;-83
2022/06/03 08:49:17;;;;;;;6.40;2.30;;;;;;;22.73;41.14;99052.83;106608;1280;24396;-83
2022/06/03 08:51:51;;;;;;;2.10;1.90;;;;;;;22.88;40.47;99051.27;106419;1277;137243;-82
2022/06/03 08:54:28;;;;;;;2.30;1.80;;;;;;;23.02;39.36;99051.58;106702;1277;24199;-82
2022/06/03 08:57:03;;;;;;;3.20;1.60;;;;;;;23.11;37.94;99043.33;106015;1278;137760;-83
2022/06/03 08:59:38;;;;;;;3.70;1.80;;;;;;;23.15;37.34;99042.02;106859;1277;22629;-83
2022/06/03 09:02:46;;;;;;;2.20;1.80;;;;;;;23.28;38.07;99042.88;106465;1279;137725;-83
2022/06/03 09:05:26;;;;;;;2.90;1.90;;;;;;;23.38;36.91;99039.09;107022;1277;22561;-83
2022/06/03 09:08:17;;;;;;;4.70;1.80;;;;;;;23.49;37.74;99042.69;106271;1278;137569;-83
2022/06/03 09:11:24;;;;;;;2.00;1.90;;;;;;;23.65;37.77;99043.27;106469;1277;22599;-83
2022/06/03 09:14:08;;;;;;;2.10;1.40;;;;;;;23.80;37.06;99030.23;106439;1277;137447;-83
2022/06/03 09:16:37;;;;;;;3.20;2.00;;;;;;;23.91;37.08;99027.34;106348;1278;23313;-83
2022/06/03 09:19:28;;;;;;;3.20;1.90;;;;;;;23.98;36.67;99023.92;106364;1277;25387;-83
2022/06/03 09:22:01;;;;;;;2.00;1.80;;;;;;;24.07;36.31;99022.18;106505;1279;22738;-84
2022/06/03 09:24:33;;;;;;;3.10;1.70;;;;;;;24.14;36.15;99022.53;106063;1279;24185;-85
2022/06/03 09:27:04;;;;;;;2.50;1.80;;;;;;;24.26;35.84;99025.76;106590;1281;137895;-84
2022/06/03 09:29:31;;;;;;;3.80;1.70;;;;;;;24.40;36.24;99022.73;106199;1277;22570;-84
2022/06/03 09:32:02;;;;;;;5.30;2.50;;;;;;;24.56;36.47;99023.86;106158;1277;137318;-83
2022/06/03 09:34:50;;;;;;;5.20;1.80;;;;;;;24.76;36.32;99017.81;106631;1277;25475;-84
2022/06/03 09:37:35;;;;;;;3.60;2.20;;;;;;;24.96;36.19;99012.40;106234;1277;137333;-83
2022/06/03 09:40:07;;;;;;;2.90;2.00;;;;;;;25.14;35.83;99010.52;106367;1277;24884;-83
2022/06/03 09:42:36;;;;;;;2.30;2.10;;;;;;;25.29;35.49;99005.61;106531;1277;23245;-83
2022/06/03 09:45:06;;;;;;;5.30;2.60;;;;;;;25.45;35.50;99007.53;106420;1277;137484;-83
2022/06/03 09:47:36;;;;;;;4.20;2.00;;;;;;;25.55;35.21;99007.74;106288;1277;22580;-83
2022/06/03 09:50:05;;;;;;;2.90;1.40;;;;;;;25.63;35.26;99010.45;106570;1277;138116;-85
2022/06/03 09:52:32;;;;;;;2.60;1.50;;;;;;;25.76;34.50;99014.61;106347;1277;24217;-82
2022/06/03 09:55:06;;;;;;;2.20;2.00;;;;;;;25.89;34.33;99011.10;106449;1276;22601;-83
2022/06/03 09:57:44;;;;;;;2.90;1.90;;;;;;;25.99;33.69;99017.64;106407;1277;137687;-83
2022/06/03 10:00:24;;;;;;;3.80;1.70;;;;;;;26.09;33.31;99019.33;106499;1277;22534;-83
2022/06/03 10:02:56;;;;;;;3.40;1.80;;;;;;;26.21;32.66;99015.57;106831;1277;137259;-82
2022/06/03 10:05:24;;;;;;;3.00;2.00;;;;;;;26.24;32.55;99012.11;106958;1277;24385;-82
2022/06/03 10:08:05;;;;;;;2.90;2.00;;;;;;;26.24;32.85;99009.87;106292;1277;137259;-82
2022/06/03 10:13:38;;;;;;;2.40;1.90;;;;;;;26.35;32.74;99007.55;105179;1278;1282056;-84
2022/06/03 10:16:21;;;;;;;5.00;2.20;;;;;;;26.44;32.67;99002.64;107111;1277;24235;-82
2022/06/03 10:18:49;;;;;;;1.90;1.70;;;;;;;26.51;31.69;98998.74;106553;1278;25509;-83
2022/06/03 10:21:16;;;;;;;1.90;1.80;;;;;;;26.52;31.59;99003.27;106750;1276;137957;-84
2022/06/03 10:24:01;;;;;;;2.50;1.60;;;;;;;26.61;31.34;99003.95;106846;1276;22712;-83
2022/06/03 10:26:49;;;;;;;3.70;1.50;;;;;;;26.73;30.70;99000.27;108300;1277;137202;-84
2022/06/03 10:29:30;;;;;;;2.20;1.50;;;;;;;26.91;30.69;99001.55;106596;1277;25329;-83
2022/06/03 10:32:14;;;;;;;2.40;1.50;;;;;;;27.02;29.51;98991.02;106748;1277;137313;-83
2022/06/03 10:34:41;;;;;;;3.90;1.60;;;;;;;27.05;29.83;98992.09;106373;1277;24368;-84
2022/06/03 10:37:26;;;;;;;2.10;1.40;;;;;;;27.17;29.79;98988.23;106645;1277;137369;-84
2022/06/03 10:39:56;;;;;;;3.40;1.50;;;;;;;27.31;29.65;98981.80;105931;1278;22563;-84
2022/06/03 10:42:24;;;;;;;4.00;1.40;;;;;;;27.50;28.70;98984.54;106450;1277;24253;-84
2022/06/03 10:44:58;;;;;;;2.40;1.50;;;;;;;27.63;27.86;98981.33;106272;1277;137746;-84
2022/06/03 10:47:38;;;;;;;4.20;1.30;;;;;;;27.78;27.37;98977.78;105934;1278;22781;-88
2022/06/03 10:50:11;;;;;;;3.80;1.50;;;;;;;27.90;26.72;98969.81;106112;1277;137596;-87
2022/06/03 11:02:15;;;;;;;2.00;1.60;;;;;;;28.38;27.38;98960.59;106071;1277;137136;-84
2022/06/03 11:05:23;;;;;;;2.60;1.50;;;;;;;28.46;26.87;98951.20;106148;1277;22534;-83
2022/06/03 11:08:10;;;;;;;2.90;1.80;;;;;;;28.54;27.42;98953.17;106326;1277;137583;-84
2022/06/03 11:10:57;;;;;;;3.50;1.60;;;;;;;28.57;27.20;98952.88;106431;1277;24323;-84
2022/06/03 11:13:29;;;;;;;1.50;1.40;;;;;;;28.61;27.09;98949.46;106218;1276;138032;-84
2022/06/03 11:16:11;;;;;;;3.10;1.50;;;;;;;28.71;26.77;98949.27;106429;1276;24345;-88
2022/06/03 11:18:38;;;;;;;2.30;1.60;;;;;;;28.82;25.71;98951.70;106131;1276;22553;-84
2022/06/03 11:21:27;;;;;;;1.30;1.20;;;;;;;28.90;25.12;98945.43;106075;1276;137090;-84
2022/06/03 11:23:58;;;;;;;1.40;1.20;;;;;;;29.00;24.81;98949.88;106238;1277;30037;-82
2022/06/03 11:26:33;;;;;;;3.70;1.20;;;;;;;29.10;24.41;98947.21;106718;1277;137148;-83
2022/06/03 11:29:27;;;;;;;1.70;1.10;;;;;;;29.19;24.01;98946.69;106379;1277;22582;-82
2022/06/03 11:31:57;;;;;;;1.70;1.20;;;;;;;29.28;23.77;98943.75;106421;1277;137253;-82
2022/06/03 11:34:47;;;;;;;1.80;1.20;;;;;;;29.27;23.26;98951.90;105958;1277;25322;-82
2022/06/03 11:37:35;;;;;;;1.10;1.10;;;;;;;29.22;22.84;98941.25;106114;1276;139081;-83
2022/06/03 11:40:19;;;;;;;2.20;1.50;;;;;;;29.21;23.32;98935.29;106116;1276;25466;-83
2022/06/03 11:43:07;;;;;;;2.10;1.50;;;;;;;29.26;23.19;98932.62;106297;1276;22730;-82
2022/06/03 11:45:39;;;;;;;1.70;1.60;;;;;;;29.26;22.68;98926.71;105979;1277;137340;-81
2022/06/03 11:48:42;;;;;;;1.70;1.40;;;;;;;29.26;23.21;98925.35;106256;1277;22629;-82
2022/06/03 11:51:15;;;;;;;3.10;1.30;;;;;;;29.33;23.27;98921.61;106457;1277;137844;-82
2022/06/03 11:53:48;;;;;;;1.80;1.30;;;;;;;29.42;23.45;98916.14;106938;1276;22621;-82
2022/06/03 11:56:36;;;;;;;3.70;1.20;;;;;;;29.51;23.65;98911.90;106436;1276;137170;-82
2022/06/03 11:59:25;;;;;;;3.10;1.20;;;;;;;29.68;23.96;98908.95;106768;1276;24227;-83
2022/06/03 12:02:05;;;;;;;3.10;1.40;;;;;;;29.85;23.71;98913.97;106549;1276;137751;-83
2022/06/03 12:05:01;;;;;;;4.00;1.50;;;;;;;29.96;22.79;98909.19;107200;1277;25306;-82
2022/06/03 12:08:12;;;;;;;3.50;1.30;;;;;;;30.03;23.02;98904.55;106168;1277;138208;-82
2022/06/03 12:10:50;;;;;;;2.20;1.60;;;;;;;30.14;23.56;98897.35;106884;1276;23609;-82
2022/06/03 12:13:27;;;;;;;2.20;1.30;;;;;;;30.23;23.71;98894.59;106291;1276;25340;-83
2022/06/03 12:16:17;;;;;;;2.70;1.30;;;;;;;30.32;23.19;98893.66;106189;1276;23258;-83
2022/06/03 12:19:03;;;;;;;3.00;1.40;;;;;;;30.27;22.54;98888.10;106360;1276;25330;-83
2022/06/03 12:21:30;;;;;;;2.30;1.50;;;;;;;30.27;22.82;98884.48;106564;1276;137280;-83
2022/06/03 12:24:40;;;;;;;1.50;1.40;;;;;;;30.28;22.83;98886.77;106261;1276;25352;-83
2022/06/03 12:27:17;;;;;;;1.40;1.30;;;;;;;29.97;21.83;98876.78;106068;1280;137414;-83
2022/06/03 12:30:01;;;;;;;6.00;1.90;;;;;;;29.69;22.88;98872.48;106186;1277;22548;-84
2022/06/03 12:32:32;;;;;;;2.80;1.90;;;;;;;29.68;22.96;98865.49;106200;1277;137538;-83
2022/06/03 12:35:52;;;;;;;3.70;2.10;;;;;;;29.70;23.07;98867.95;106483;1277;24474;-82
2022/06/03 12:38:19;;;;;;;1.30;1.20;;;;;;;29.78;23.56;98862.23;105915;1277;137186;-83
2022/06/03 12:40:49;;;;;;;1.70;1.30;;;;;;;29.88;24.20;98855.02;106051;1277;25361;-83
2022/06/03 12:43:47;;;;;;;2.60;1.20;;;;;;;30.01;24.35;98849.85;106165;1277;24276;-82
2022/06/03 12:46:38;;;;;;;2.00;1.70;;;;;;;30.16;23.80;98848.91;106359;1277;32130;-83
2022/06/03 12:49:35;;;;;;;2.40;1.50;;;;;;;30.18;23.37;98843.02;106055;1277;23441;-83
2022/06/03 12:52:29;;;;;;;1.70;1.30;;;;;;;30.21;23.53;98841.89;106152;1277;23392;-83
2022/06/03 12:54:59;;;;;;;1.50;1.40;;;;;;;30.23;23.46;98838.71;105970;1279;25479;-82
2022/06/03 12:57:58;;;;;;;2.00;1.70;;;;;;;30.20;23.23;98837.21;106198;1277;137135;-83
2022/06/03 13:00:32;;;;;;;3.60;1.60;;;;;;;30.19;23.14;98834.46;106356;1276;22730;-82
2022/06/03 13:03:13;;;;;;;2.00;1.40;;;;;;;30.34;22.99;98826.19;106506;1276;137427;-83
2022/06/03 13:05:41;;;;;;;2.40;1.60;;;;;;;30.50;22.80;98824.48;106383;1276;22550;-83
2022/06/03 13:08:28;;;;;;;4.10;1.40;;;;;;;30.65;22.50;98820.02;105844;1277;137168;-83
2022/06/03 13:11:24;;;;;;;3.70;1.90;;;;;;;30.82;22.34;98813.62;106468;1277;25256;-83
2022/06/03 13:13:55;;;;;;;1.60;1.40;;;;;;;30.87;22.19;98808.17;105987;1277;137416;-82
2022/06/03 13:16:39;;;;;;;1.70;1.60;;;;;;;30.74;21.63;98797.06;106253;1276;24245;-83